Time;durP1;ratioP1;P1;durP2;ratioP2;P2;SDS_P1;SDS_P2;PMS_P1;PMS_P2;Temp;Humidity;BMP_temperature;BMP_pressure;BME280_temperature;BME280_humidity;BME280_pressure;Samples;Min_cycle;Max_cycle;Signal;HPM_P1;HPM_P2
2023/12/29 00:01:59;;;;;;;5.03;2.80;;;10.30;77.10;;;;;;5027147;28;20440;-70
2023/12/29 00:04:25;;;;;;;4.30;2.70;;;10.40;76.50;;;;;;5030075;28;20428;-70
2023/12/29 00:06:51;;;;;;;4.07;2.90;;;10.40;76.20;;;;;;5029781;28;21235;-71
2023/12/29 00:09:17;;;;;;;5.83;3.37;;;10.50;76.10;;;;;;5025984;28;20431;-70
2023/12/29 00:11:43;;;;;;;4.93;3.37;;;10.60;75.70;;;;;;5028646;28;20205;-71
2023/12/29 00:14:08;;;;;;;4.60;2.87;;;10.60;75.50;;;;;;5032006;28;20449;-67
2023/12/29 00:16:34;;;;;;;4.00;2.60;;;10.60;75.70;;;;;;5032162;28;20196;-69
2023/12/29 00:18:59;;;;;;;7.13;2.97;;;10.60;75.80;;;;;;5032990;28;20315;-70
2023/12/29 00:21:25;;;;;;;3.53;2.80;;;10.60;75.50;;;;;;5032320;28;20227;-71
2023/12/29 00:23:50;;;;;;;7.00;3.67;;;10.70;75.20;;;;;;5033750;28;20190;-70
2023/12/29 00:26:17;;;;;;;4.00;3.07;;;10.70;75.40;;;;;;5034140;28;20231;-70
2023/12/29 00:28:44;;;;;;;7.47;3.37;;;10.70;75.40;;;;;;5027714;28;20181;-70
2023/12/29 00:31:18;;;;;;;5.17;3.43;;;10.60;75.20;;;;;;5031326;28;20467;-71
2023/12/29 00:33:44;;;;;;;4.90;3.20;;;10.60;75.40;;;;;;5025014;28;20428;-71
2023/12/29 00:36:17;;;;;;;4.10;3.17;;;10.60;75.40;;;;;;5031490;28;20424;-69
2023/12/29 00:38:42;;;;;;;4.20;2.60;;;10.60;75.50;;;;;;5029176;28;20192;-70
2023/12/29 00:41:08;;;;;;;8.57;3.77;;;10.60;75.40;;;;;;5025561;28;20483;-69
2023/12/29 00:43:35;;;;;;;4.40;3.13;;;10.60;75.20;;;;;;5027683;28;20181;-70
2023/12/29 00:46:04;;;;;;;5.03;3.17;;;10.60;75.10;;;;;;5027117;28;20421;-72
2023/12/29 00:48:33;;;;;;;4.40;3.10;;;10.60;75.20;;;;;;5025601;28;20531;-70
2023/12/29 00:51:01;;;;;;;8.57;2.87;;;10.60;74.90;;;;;;5019235;28;20496;-70
2023/12/29 00:53:28;;;;;;;5.60;3.13;;;10.60;74.90;;;;;;5028354;28;20486;-69
2023/12/29 00:55:54;;;;;;;6.00;3.60;;;10.60;74.90;;;;;;5031983;28;20491;-69
2023/12/29 00:58:20;;;;;;;4.60;2.87;;;10.60;74.90;;;;;;5033001;28;20448;-69
2023/12/29 01:00:45;;;;;;;6.23;2.67;;;10.60;75.10;;;;;;5018854;28;20213;-69
2023/12/29 01:03:11;;;;;;;4.37;2.93;;;10.60;75.10;;;;;;5031888;28;20181;-69
2023/12/29 01:05:36;;;;;;;5.80;3.03;;;10.70;75.10;;;;;;5021625;28;20189;-69
2023/12/29 01:08:02;;;;;;;6.53;3.03;;;10.70;74.90;;;;;;5032118;28;20242;-70
2023/12/29 01:10:28;;;;;;;5.13;3.00;;;10.70;74.80;;;;;;5026157;28;20220;-70
2023/12/29 01:12:53;;;;;;;8.20;3.23;;;10.70;74.90;;;;;;5030192;28;20515;-71
2023/12/29 01:15:19;;;;;;;8.70;2.93;;;10.60;74.90;;;;;;5029116;28;20268;-68
2023/12/29 01:17:44;;;;;;;6.43;3.20;;;10.60;74.80;;;;;;5029423;28;20200;-70
2023/12/29 01:20:10;;;;;;;4.40;2.90;;;10.70;74.60;;;;;;5027211;28;20297;-69
2023/12/29 01:22:36;;;;;;;5.60;3.60;;;10.70;74.60;;;;;;5028798;28;20186;-69
2023/12/29 01:25:02;;;;;;;6.60;3.70;;;10.70;74.30;;;;;;5026094;28;20297;-70
2023/12/29 01:27:29;;;;;;;5.83;2.90;;;10.70;74.20;;;;;;5027057;28;20272;-69
2023/12/29 01:29:54;;;;;;;8.80;3.60;;;10.70;74.00;;;;;;5023037;28;20908;-70
2023/12/29 01:32:21;;;;;;;4.40;3.13;;;10.70;73.90;;;;;;5032971;28;20454;-69
2023/12/29 01:34:47;;;;;;;4.83;3.20;;;10.60;74.00;;;;;;5026047;28;20213;-68
2023/12/29 01:37:13;;;;;;;6.40;3.60;;;10.60;74.00;;;;;;5023811;28;20423;-71
2023/12/29 01:39:39;;;;;;;5.37;3.03;;;10.60;74.00;;;;;;5023393;28;20221;-68
2023/12/29 01:42:06;;;;;;;10.00;3.87;;;10.60;73.90;;;;;;5026584;28;20538;-70
2023/12/29 01:44:32;;;;;;;7.37;3.37;;;10.60;74.00;;;;;;5031405;28;20427;-69
2023/12/29 01:47:02;;;;;;;6.00;3.40;;;10.60;73.90;;;;;;5033916;28;20466;-70
2023/12/29 01:49:29;;;;;;;4.80;3.00;;;10.70;73.70;;;;;;5021988;28;20540;-69
2023/12/29 01:51:58;;;;;;;4.50;3.00;;;10.70;73.70;;;;;;5026111;28;20972;-68
2023/12/29 01:54:34;;;;;;;6.17;3.60;;;10.70;73.70;;;;;;5031865;28;20527;-68
2023/12/29 01:57:02;;;;;;;5.33;3.50;;;10.70;73.50;;;;;;5035438;28;20463;-71
2023/12/29 01:59:28;;;;;;;5.87;3.47;;;10.80;73.60;;;;;;5030478;28;20962;-70
2023/12/29 02:01:55;;;;;;;7.07;3.80;;;10.70;73.50;;;;;;5024735;28;20432;-71
2023/12/29 02:04:25;;;;;;;6.10;3.40;;;10.70;73.60;;;;;;5024578;28;20870;-69
2023/12/29 02:06:51;;;;;;;8.20;3.80;;;10.70;73.60;;;;;;5028743;28;20443;-70
2023/12/29 02:09:18;;;;;;;5.40;3.70;;;10.70;73.60;;;;;;5029467;28;20424;-68
2023/12/29 02:11:45;;;;;;;5.83;4.10;;;10.70;73.90;;;;;;5027126;28;20448;-70
2023/12/29 02:14:10;;;;;;;6.30;3.77;;;10.60;74.00;;;;;;5025872;28;20932;-68
2023/12/29 02:17:02;;;;;;;8.87;3.40;;;10.70;74.20;;;;;;5023222;28;20515;-69
2023/12/29 02:19:43;;;;;;;3.90;2.97;;;10.60;74.20;;;;;;5024984;28;20475;-70
2023/12/29 02:22:10;;;;;;;4.83;3.30;;;10.60;74.30;;;;;;5020244;28;20477;-69
2023/12/29 02:24:36;;;;;;;5.27;3.13;;;10.60;74.30;;;;;;5026057;28;20471;-67
2023/12/29 02:27:22;;;;;;;7.57;4.30;;;10.60;74.30;;;;;;5029740;28;20432;-70
2023/12/29 02:30:34;;;;;;;6.17;3.47;;;10.60;74.50;;;;;;5017174;28;20464;-69
2023/12/29 02:33:04;;;;;;;4.60;3.00;;;10.70;74.20;;;;;;5019931;28;20926;-69
2023/12/29 02:35:35;;;;;;;7.33;4.00;;;10.70;74.00;;;;;;5023290;28;20435;-70
2023/12/29 02:38:01;;;;;;;6.77;3.80;;;10.70;74.00;;;;;;5023409;28;20848;-69
2023/12/29 02:40:27;;;;;;;6.50;3.70;;;10.70;74.00;;;;;;5031488;28;20585;-70
2023/12/29 02:42:53;;;;;;;5.70;3.37;;;10.70;73.90;;;;;;5035204;28;20739;-70
2023/12/29 02:45:19;;;;;;;7.00;3.57;;;10.70;73.90;;;;;;5029461;28;20189;-70
2023/12/29 02:47:45;;;;;;;5.70;3.70;;;10.70;73.90;;;;;;5028109;28;20974;-72
2023/12/29 02:50:11;;;;;;;6.20;3.63;;;10.70;73.90;;;;;;5028802;28;20220;-70
2023/12/29 02:52:37;;;;;;;6.27;3.77;;;10.60;74.30;;;;;;5029165;28;20428;-69
2023/12/29 02:55:03;;;;;;;5.80;4.10;;;10.60;75.10;;;;;;5029687;28;20499;-71
2023/12/29 02:57:29;;;;;;;6.53;3.90;;;10.60;75.40;;;;;;5027108;28;20444;-70
2023/12/29 02:59:55;;;;;;;6.27;3.60;;;10.50;75.80;;;;;;5026676;28;20506;-70
2023/12/29 03:02:22;;;;;;;5.30;3.50;;;10.40;76.40;;;;;;5030064;28;20579;-70
2023/12/29 03:04:47;;;;;;;4.60;3.63;;;10.40;76.50;;;;;;5026183;28;20905;-68
2023/12/29 03:07:13;;;;;;;5.47;3.83;;;10.40;76.80;;;;;;5027902;28;20510;-70
2023/12/29 03:09:39;;;;;;;6.00;3.73;;;10.40;77.30;;;;;;5023554;28;20195;-69
2023/12/29 03:12:05;;;;;;;5.23;3.07;;;10.30;77.40;;;;;;5024945;28;20659;-69
2023/12/29 03:14:31;;;;;;;6.63;3.50;;;10.30;77.60;;;;;;5030274;28;20181;-68
2023/12/29 03:16:57;;;;;;;7.20;4.43;;;10.30;77.60;;;;;;5028620;28;21055;-69
2023/12/29 03:19:23;;;;;;;8.33;4.77;;;10.30;77.70;;;;;;5028063;28;20279;-68
2023/12/29 03:21:48;;;;;;;6.70;4.00;;;10.30;77.80;;;;;;5021956;28;20501;-68
2023/12/29 03:24:14;;;;;;;4.40;2.87;;;10.30;77.80;;;;;;5044751;28;20553;-69
2023/12/29 03:26:39;;;;;;;6.23;3.97;;;10.20;78.00;;;;;;5027325;28;20224;-70
2023/12/29 03:29:05;;;;;;;7.67;3.47;;;10.20;78.30;;;;;;5027762;28;20251;-69
2023/12/29 03:31:31;;;;;;;5.83;3.57;;;10.20;78.30;;;;;;5028281;28;20208;-70
2023/12/29 03:33:56;;;;;;;5.97;3.80;;;10.20;78.40;;;;;;5044001;28;20188;-68
2023/12/29 03:36:22;;;;;;;8.10;3.83;;;10.10;78.70;;;;;;5031983;28;20677;-69
2023/12/29 03:38:47;;;;;;;6.50;3.70;;;10.10;79.00;;;;;;5031398;28;20356;-68
2023/12/29 03:41:13;;;;;;;7.77;4.20;;;10.10;79.20;;;;;;5030530;28;20298;-69
2023/12/29 03:43:39;;;;;;;7.67;3.67;;;10.10;79.50;;;;;;5039193;28;20181;-70
2023/12/29 03:46:16;;;;;;;5.97;4.10;;;10.10;79.50;;;;;;5030182;28;20435;-70
2023/12/29 03:48:41;;;;;;;4.13;2.80;;;10.10;79.60;;;;;;5032174;28;20191;-69
2023/12/29 03:51:07;;;;;;;4.97;3.27;;;10.00;79.60;;;;;;5029044;28;20467;-69
2023/12/29 03:53:33;;;;;;;4.87;3.20;;;10.00;79.70;;;;;;5032058;28;20216;-70
2023/12/29 03:55:58;;;;;;;7.07;3.40;;;10.00;79.70;;;;;;5034413;28;20275;-70
2023/12/29 03:58:24;;;;;;;4.80;3.00;;;10.00;79.90;;;;;;5033743;28;20251;-68
2023/12/29 04:00:49;;;;;;;4.50;3.60;;;10.00;79.90;;;;;;5032493;28;20731;-69
2023/12/29 04:03:15;;;;;;;4.43;3.43;;;10.00;79.90;;;;;;5036107;28;20196;-70
2023/12/29 04:05:40;;;;;;;6.93;3.63;;;10.00;79.90;;;;;;5020799;28;20196;-68
2023/12/29 04:08:06;;;;;;;6.73;3.60;;;9.90;80.20;;;;;;5027551;28;20272;-69
2023/12/29 04:10:32;;;;;;;4.00;3.10;;;10.00;80.20;;;;;;5029235;28;20559;-70
2023/12/29 04:12:57;;;;;;;4.73;3.20;;;10.00;80.20;;;;;;5035404;28;20198;-69
2023/12/29 04:15:23;;;;;;;5.87;3.33;;;10.00;80.20;;;;;;5020678;28;20182;-71
2023/12/29 04:17:49;;;;;;;5.73;3.43;;;10.00;80.20;;;;;;5032121;28;20189;-69
2023/12/29 04:20:14;;;;;;;5.10;3.00;;;10.00;80.30;;;;;;5024064;28;20756;-69
2023/12/29 04:22:40;;;;;;;6.43;3.57;;;10.00;80.50;;;;;;5031342;28;20727;-70
2023/12/29 04:25:06;;;;;;;7.13;3.33;;;10.00;80.60;;;;;;5030960;28;20193;-70
2023/12/29 04:27:31;;;;;;;5.10;2.83;;;9.90;80.60;;;;;;5029221;28;20541;-69
2023/12/29 04:29:57;;;;;;;5.37;3.20;;;9.90;80.80;;;;;;5024213;28;20500;-69
2023/12/29 04:32:22;;;;;;;4.87;2.97;;;9.90;80.90;;;;;;5031459;28;20186;-70
2023/12/29 04:34:48;;;;;;;4.80;2.50;;;9.90;80.90;;;;;;5036882;28;20201;-69
2023/12/29 04:37:13;;;;;;;4.50;3.47;;;10.00;80.90;;;;;;5028541;28;20204;-70
2023/12/29 04:39:39;;;;;;;4.53;2.70;;;9.90;81.10;;;;;;5026277;28;20221;-69
2023/12/29 04:42:05;;;;;;;3.90;3.10;;;9.90;81.40;;;;;;5027550;28;20177;-68
2023/12/29 04:44:30;;;;;;;5.90;3.57;;;9.90;81.40;;;;;;5030349;28;20178;-70
2023/12/29 04:46:56;;;;;;;5.87;3.30;;;9.90;81.40;;;;;;5026772;28;20296;-70
2023/12/29 04:49:22;;;;;;;5.53;3.30;;;9.90;81.50;;;;;;5023066;28;20186;-71
2023/12/29 04:51:48;;;;;;;5.33;3.40;;;9.90;81.50;;;;;;5015919;28;20206;-69
2023/12/29 04:54:14;;;;;;;5.97;3.17;;;9.90;81.70;;;;;;5027622;28;20243;-69
2023/12/29 04:56:39;;;;;;;3.93;3.00;;;10.00;81.70;;;;;;5029627;28;20428;-70
2023/12/29 04:59:05;;;;;;;4.20;2.83;;;10.00;81.70;;;;;;5026507;28;20436;-69
2023/12/29 05:01:30;;;;;;;9.23;3.00;;;10.00;81.70;;;;;;5026840;28;20685;-70
2023/12/29 05:03:56;;;;;;;5.07;2.97;;;10.00;81.70;;;;;;5028044;28;20185;-71
2023/12/29 05:06:22;;;;;;;5.40;3.67;;;10.00;81.80;;;;;;5030387;28;20654;-69
2023/12/29 05:08:47;;;;;;;5.57;3.50;;;10.00;81.80;;;;;;5029928;28;20544;-69
2023/12/29 05:11:13;;;;;;;5.80;2.77;;;10.00;81.80;;;;;;5027176;28;20335;-70
2023/12/29 05:13:39;;;;;;;6.23;3.10;;;10.00;81.80;;;;;;5028981;28;20185;-69
2023/12/29 05:16:05;;;;;;;4.90;2.77;;;10.00;81.80;;;;;;5028644;28;20204;-68
2023/12/29 05:18:30;;;;;;;5.67;3.50;;;10.00;81.80;;;;;;5024969;28;20594;-69
2023/12/29 05:20:56;;;;;;;4.07;3.17;;;10.10;81.80;;;;;;5023505;28;20549;-70
2023/12/29 05:23:22;;;;;;;5.80;3.23;;;10.10;81.80;;;;;;5029813;28;20260;-70
2023/12/29 05:25:47;;;;;;;4.70;3.30;;;10.10;81.80;;;;;;5027320;28;20189;-66
2023/12/29 05:28:13;;;;;;;6.77;3.43;;;10.10;82.10;;;;;;5026785;28;20614;-70
2023/12/29 05:30:38;;;;;;;4.93;3.20;;;10.00;82.70;;;;;;5025883;28;20208;-70
2023/12/29 05:33:04;;;;;;;6.50;3.70;;;9.90;83.40;;;;;;5030266;28;20181;-71
2023/12/29 05:35:29;;;;;;;8.70;3.50;;;9.80;83.80;;;;;;5032756;28;20212;-69
2023/12/29 05:37:55;;;;;;;6.40;3.90;;;9.80;84.00;;;;;;5023789;28;20217;-70
2023/12/29 05:40:21;;;;;;;5.30;3.30;;;9.80;84.30;;;;;;5028676;28;20304;-68
2023/12/29 05:42:46;;;;;;;5.03;3.57;;;9.70;84.60;;;;;;5023426;28;20634;-70
2023/12/29 05:45:12;;;;;;;6.33;4.03;;;9.70;84.90;;;;;;5028357;28;20180;-69
2023/12/29 05:47:38;;;;;;;7.20;3.70;;;9.70;85.00;;;;;;5024923;28;20666;-70
2023/12/29 05:50:04;;;;;;;4.03;3.20;;;9.70;85.20;;;;;;5026540;28;20592;-69
2023/12/29 05:52:29;;;;;;;4.33;3.37;;;9.70;85.30;;;;;;5024020;28;20186;-69
2023/12/29 05:54:55;;;;;;;6.90;4.37;;;9.70;85.20;;;;;;5030162;28;21019;-70
2023/12/29 05:57:20;;;;;;;5.33;3.73;;;9.70;85.20;;;;;;5029934;28;20234;-68
2023/12/29 05:59:46;;;;;;;4.87;3.13;;;9.70;85.30;;;;;;5022647;28;20252;-69
2023/12/29 06:02:12;;;;;;;4.73;3.30;;;9.60;85.50;;;;;;5028630;28;20265;-68
2023/12/29 06:04:37;;;;;;;7.80;4.27;;;9.60;85.50;;;;;;5028704;28;20296;-70
2023/12/29 06:07:03;;;;;;;10.67;4.23;;;9.60;85.50;;;;;;5027557;28;20276;-69
2023/12/29 06:09:29;;;;;;;8.13;4.10;;;9.60;85.50;;;;;;5028730;28;20271;-71
2023/12/29 06:11:54;;;;;;;5.10;3.37;;;9.60;85.50;;;;;;5027751;28;20287;-70
2023/12/29 06:14:20;;;;;;;4.97;3.20;;;9.70;85.30;;;;;;5026672;28;20701;-71
2023/12/29 06:16:46;;;;;;;5.57;3.57;;;9.70;85.30;;;;;;5026746;28;20236;-71
2023/12/29 06:19:11;;;;;;;5.33;3.40;;;9.70;85.00;;;;;;5028499;28;20181;-69
2023/12/29 06:21:43;;;;;;;6.33;3.63;;;9.70;85.00;;;;;;5025183;28;20619;-70
2023/12/29 06:24:09;;;;;;;5.47;3.53;;;9.70;85.20;;;;;;5025657;28;20181;-70
2023/12/29 06:26:35;;;;;;;5.73;3.63;;;9.70;85.30;;;;;;5025356;28;20408;-69
2023/12/29 06:29:01;;;;;;;4.00;3.30;;;9.60;85.50;;;;;;5026810;28;20912;-69
2023/12/29 06:31:26;;;;;;;5.17;2.87;;;9.60;85.70;;;;;;5021428;28;20600;-69
2023/12/29 06:33:52;;;;;;;6.97;3.37;;;9.60;85.90;;;;;;5024729;28;20263;-69
2023/12/29 06:36:18;;;;;;;5.00;2.90;;;9.60;85.70;;;;;;5021271;28;20258;-70
2023/12/29 06:38:48;;;;;;;5.87;3.70;;;9.60;85.60;;;;;;5024711;28;20187;-71
2023/12/29 06:41:14;;;;;;;6.50;2.87;;;9.70;85.60;;;;;;5025790;28;20877;-70
2023/12/29 06:43:39;;;;;;;4.37;3.00;;;9.70;85.50;;;;;;5029268;28;20419;-70
2023/12/29 06:46:06;;;;;;;4.63;3.13;;;9.70;85.30;;;;;;5029020;28;20267;-69
2023/12/29 06:48:31;;;;;;;4.90;3.30;;;9.80;85.30;;;;;;5031266;28;20235;-70
2023/12/29 06:50:57;;;;;;;4.77;2.23;;;9.80;85.30;;;;;;5028234;28;20877;-70
2023/12/29 06:53:23;;;;;;;5.80;3.30;;;9.80;85.50;;;;;;5027432;28;20265;-70
2023/12/29 06:55:48;;;;;;;4.83;3.00;;;9.80;85.30;;;;;;5030761;28;20182;-68
2023/12/29 06:58:14;;;;;;;7.87;3.27;;;9.80;85.20;;;;;;5032278;28;20208;-70
2023/12/29 07:00:40;;;;;;;4.80;2.80;;;9.80;85.20;;;;;;5028638;28;20209;-69
2023/12/29 07:03:05;;;;;;;5.03;3.33;;;9.80;85.30;;;;;;5027381;28;20204;-70
2023/12/29 07:05:32;;;;;;;4.70;2.87;;;9.80;85.00;;;;;;5033909;28;20197;-70
2023/12/29 07:07:57;;;;;;;4.90;2.57;;;9.80;85.00;;;;;;5034950;28;20204;-70
2023/12/29 07:10:23;;;;;;;5.80;3.20;;;9.90;85.00;;;;;;5028793;28;20455;-72
2023/12/29 07:12:49;;;;;;;4.23;3.00;;;9.90;84.90;;;;;;5036477;28;20573;-69
2023/12/29 07:15:14;;;;;;;5.30;2.90;;;9.90;85.00;;;;;;5035038;28;20181;-68
2023/12/29 07:17:40;;;;;;;4.30;3.40;;;10.00;84.70;;;;;;5031125;28;20181;-70
2023/12/29 07:20:06;;;;;;;4.10;2.93;;;9.90;85.00;;;;;;5029684;28;20214;-70
2023/12/29 07:22:32;;;;;;;5.60;3.03;;;9.90;85.20;;;;;;5034259;28;20189;-70
2023/12/29 07:24:58;;;;;;;4.60;3.00;;;9.90;85.20;;;;;;5027847;28;20455;-70
2023/12/29 07:27:24;;;;;;;9.37;3.87;;;9.90;85.50;;;;;;5021776;28;20436;-70
2023/12/29 07:29:49;;;;;;;4.07;2.80;;;9.80;85.70;;;;;;5023307;28;20217;-68
2023/12/29 07:32:15;;;;;;;5.20;3.40;;;9.80;85.90;;;;;;5034676;28;20197;-71
2023/12/29 07:34:41;;;;;;;5.77;3.00;;;9.70;86.00;;;;;;5034706;28;20185;-69
2023/12/29 07:37:06;;;;;;;5.07;2.77;;;9.70;86.00;;;;;;5029361;28;20193;-69
2023/12/29 07:39:32;;;;;;;3.70;2.60;;;9.80;85.90;;;;;;5032051;28;20244;-69
2023/12/29 07:41:58;;;;;;;4.40;2.93;;;9.80;85.50;;;;;;5030504;28;20201;-71
2023/12/29 07:44:23;;;;;;;4.53;2.60;;;9.80;85.50;;;;;;5032713;28;20428;-70
2023/12/29 07:46:49;;;;;;;4.87;2.97;;;9.90;85.50;;;;;;5032480;28;20233;-70
2023/12/29 07:49:15;;;;;;;4.40;3.30;;;9.90;85.30;;;;;;5029126;28;20181;-69
2023/12/29 07:51:42;;;;;;;4.03;2.90;;;10.00;85.20;;;;;;5032141;28;20221;-71
2023/12/29 07:54:08;;;;;;;4.20;3.00;;;9.90;85.20;;;;;;5026608;28;20193;-69
2023/12/29 07:56:34;;;;;;;4.03;2.97;;;9.90;85.30;;;;;;5030009;28;20427;-69
2023/12/29 07:58:59;;;;;;;3.80;3.00;;;10.00;85.50;;;;;;5030598;28;20456;-70
2023/12/29 08:01:26;;;;;;;4.30;2.90;;;10.00;85.50;;;;;;5026517;28;20217;-71
2023/12/29 08:03:52;;;;;;;18.33;3.73;;;10.00;85.30;;;;;;5028927;28;20240;-69
2023/12/29 08:06:18;;;;;;;4.00;2.77;;;10.00;85.30;;;;;;5034636;28;20424;-70
2023/12/29 08:08:43;;;;;;;6.00;2.83;;;10.00;85.30;;;;;;5034580;28;20181;-70
2023/12/29 08:11:16;;;;;;;7.80;4.83;;;10.10;85.00;;;;;;5031999;28;20590;-72
2023/12/29 08:13:44;;;;;;;5.90;2.80;;;10.10;85.00;;;;;;5029871;28;20244;-72
2023/12/29 08:16:10;;;;;;;5.63;3.10;;;10.20;84.90;;;;;;5034731;28;20876;-69
2023/12/29 08:18:36;;;;;;;3.93;2.60;;;10.20;84.60;;;;;;5034988;28;20451;-71
2023/12/29 08:21:02;;;;;;;6.20;2.90;;;10.20;84.70;;;;;;5029999;28;20895;-69
2023/12/29 08:23:28;;;;;;;8.77;3.20;;;10.20;84.60;;;;;;5027637;28;20207;-69
2023/12/29 08:25:53;;;;;;;4.60;2.93;;;10.30;84.60;;;;;;5033891;28;20783;-69
2023/12/29 08:28:19;;;;;;;5.17;2.87;;;10.20;84.60;;;;;;5030091;28;20195;-70
2023/12/29 08:30:45;;;;;;;4.47;2.90;;;10.20;84.70;;;;;;5027521;28;20205;-70
2023/12/29 08:33:13;;;;;;;4.37;2.80;;;10.20;84.70;;;;;;5032554;28;20256;-70
2023/12/29 08:35:40;;;;;;;4.63;2.93;;;10.10;84.70;;;;;;5029634;28;20454;-71
2023/12/29 08:38:06;;;;;;;6.40;3.20;;;10.30;84.90;;;;;;5029771;28;20408;-69
2023/12/29 08:40:31;;;;;;;6.20;3.50;;;10.20;84.60;;;;;;5028377;28;20609;-70
2023/12/29 08:42:57;;;;;;;4.00;2.90;;;10.30;84.70;;;;;;5029489;28;20201;-70
2023/12/29 08:45:23;;;;;;;5.50;2.60;;;10.30;84.70;;;;;;5030725;28;20178;-71
2023/12/29 08:47:48;;;;;;;5.37;3.10;;;10.30;84.60;;;;;;5029594;28;20224;-68
2023/12/29 08:50:15;;;;;;;5.00;3.23;;;10.30;84.60;;;;;;5022492;28;20685;-71
2023/12/29 08:52:40;;;;;;;4.00;2.90;;;10.30;84.60;;;;;;5031643;28;20609;-71
2023/12/29 08:55:06;;;;;;;4.43;3.03;;;10.40;84.60;;;;;;5031004;28;20416;-71
2023/12/29 08:57:32;;;;;;;5.20;3.10;;;10.40;84.30;;;;;;5034791;28;20678;-69
2023/12/29 08:59:58;;;;;;;3.97;2.90;;;10.40;84.30;;;;;;5026855;28;20642;-70
2023/12/29 09:02:23;;;;;;;4.03;2.67;;;10.40;84.00;;;;;;5026280;28;20284;-69
2023/12/29 09:04:49;;;;;;;3.50;2.93;;;10.40;84.00;;;;;;5033295;28;20185;-70
2023/12/29 09:07:14;;;;;;;5.60;3.20;;;10.40;84.00;;;;;;5033297;28;20280;-71
2023/12/29 09:09:40;;;;;;;4.43;2.70;;;10.50;83.70;;;;;;5030566;28;20607;-70
2023/12/29 09:12:06;;;;;;;3.40;2.47;;;10.50;83.70;;;;;;5029409;28;20186;-70
2023/12/29 09:14:34;;;;;;;4.10;2.30;;;10.50;83.60;;;;;;5032166;28;20200;-71
2023/12/29 09:17:00;;;;;;;5.87;3.20;;;10.50;83.30;;;;;;5030836;28;20193;-70
2023/12/29 09:19:25;;;;;;;3.90;2.37;;;10.60;83.10;;;;;;5029035;28;20486;-70
2023/12/29 09:21:51;;;;;;;4.57;2.20;;;10.60;83.00;;;;;;5023963;28;20327;-68
2023/12/29 09:24:17;;;;;;;3.67;2.40;;;10.70;82.80;;;;;;5028768;28;20533;-70
2023/12/29 09:26:42;;;;;;;4.40;2.67;;;10.70;82.50;;;;;;5027683;28;20304;-71
2023/12/29 09:29:08;;;;;;;6.47;2.67;;;10.80;82.70;;;;;;5027396;28;20595;-70
2023/12/29 09:31:33;;;;;;;3.50;2.20;;;10.80;82.50;;;;;;5027114;28;20201;-69
2023/12/29 09:34:00;;;;;;;4.60;3.03;;;10.90;82.40;;;;;;5027709;28;20266;-70
2023/12/29 09:36:26;;;;;;;6.10;2.23;;;10.90;82.40;;;;;;5029944;28;20243;-70
2023/12/29 09:38:51;;;;;;;3.83;2.30;;;10.90;82.50;;;;;;5025195;28;20436;-70
2023/12/29 09:41:20;;;;;;;4.77;2.33;;;11.00;82.80;;;;;;5023000;28;20630;-70
2023/12/29 09:43:48;;;;;;;3.00;2.20;;;10.90;82.80;;;;;;5029410;28;20189;-71
2023/12/29 09:46:17;;;;;;;4.17;2.37;;;10.80;83.10;;;;;;5022523;28;20797;-69
2023/12/29 09:48:46;;;;;;;4.13;2.70;;;10.80;83.10;;;;;;5026640;28;20523;-70
2023/12/29 09:51:13;;;;;;;4.43;2.70;;;10.70;83.40;;;;;;5023621;28;20475;-69
2023/12/29 09:53:40;;;;;;;3.17;2.27;;;10.70;83.60;;;;;;5028004;28;20420;-72
2023/12/29 09:56:09;;;;;;;4.17;2.47;;;10.70;83.70;;;;;;5026582;28;21038;-71
2023/12/29 09:58:37;;;;;;;2.50;1.87;;;10.70;83.40;;;;;;5026185;28;20448;-70
2023/12/29 10:01:04;;;;;;;3.07;2.40;;;10.80;83.30;;;;;;5019997;28;20491;-70
2023/12/29 10:03:30;;;;;;;4.60;2.20;;;10.80;83.30;;;;;;5022069;28;20905;-70
2023/12/29 10:05:58;;;;;;;3.70;2.30;;;10.80;83.10;;;;;;5029944;28;20438;-71
2023/12/29 10:08:25;;;;;;;5.57;2.37;;;10.90;83.10;;;;;;5028540;28;20181;-69
2023/12/29 10:10:52;;;;;;;7.50;2.63;;;10.90;82.80;;;;;;5024788;28;20999;-70
2023/12/29 10:13:19;;;;;;;7.47;2.53;;;10.90;83.00;;;;;;5027961;28;20438;-69
2023/12/29 10:16:20;;;;;;;6.03;2.17;;;10.90;82.70;;;;;;5030758;28;20490;-70
2023/12/29 10:18:57;;;;;;;2.90;2.10;;;10.90;82.70;;;;;;5027323;28;20432;-70
2023/12/29 10:21:48;;;;;;;3.17;1.97;;;11.00;82.20;;;;;;5025195;28;21152;-71
2023/12/29 10:24:21;;;;;;;3.47;2.00;;;11.10;81.70;;;;;;5025343;28;20420;-70
2023/12/29 10:26:47;;;;;;;3.70;2.20;;;11.10;81.40;;;;;;5025303;28;20428;-69
2023/12/29 10:29:12;;;;;;;3.70;2.33;;;11.10;81.40;;;;;;5022587;28;20811;-71
2023/12/29 10:31:38;;;;;;;3.07;1.73;;;11.10;81.40;;;;;;5022170;28;20463;-69
2023/12/29 10:34:29;;;;;;;4.40;1.90;;;11.20;81.10;;;;;;5029296;28;20182;-72
2023/12/29 10:36:56;;;;;;;3.40;2.07;;;11.20;80.90;;;;;;5026824;28;20226;-71
2023/12/29 10:39:22;;;;;;;2.80;1.90;;;11.20;80.60;;;;;;5021567;28;20424;-71
2023/12/29 10:41:48;;;;;;;1.90;1.60;;;11.20;80.30;;;;;;5010384;28;20521;-71
2023/12/29 10:44:13;;;;;;;2.90;1.70;;;11.30;80.00;;;;;;5021591;28;20873;-70
2023/12/29 10:46:39;;;;;;;2.17;1.40;;;11.40;79.30;;;;;;5026027;28;20212;-71
2023/12/29 10:49:13;;;;;;;3.03;1.87;;;11.50;78.40;;;;;;5028387;28;20197;-70
2023/12/29 10:51:39;;;;;;;1.67;1.50;;;11.60;78.00;;;;;;5029183;28;20205;-70
2023/12/29 10:54:06;;;;;;;2.10;1.43;;;11.60;77.30;;;;;;5022784;28;20416;-70
2023/12/29 10:56:32;;;;;;;2.67;1.73;;;11.70;77.10;;;;;;5028958;28;20442;-70
2023/12/29 10:59:03;;;;;;;1.93;1.20;;;11.70;76.70;;;;;;5022445;28;20452;-69
2023/12/29 11:01:37;;;;;;;1.93;1.60;;;11.90;76.50;;;;;;5026834;28;20479;-69
2023/12/29 11:04:05;;;;;;;3.10;2.10;;;11.90;76.40;;;;;;5029091;28;20935;-70
2023/12/29 11:06:43;;;;;;;2.60;1.90;;;11.90;76.40;;;;;;5029966;28;20951;-71
2023/12/29 11:09:11;;;;;;;2.30;1.60;;;11.90;76.40;;;;;;5027046;28;20451;-71
2023/12/29 11:11:37;;;;;;;2.97;1.70;;;11.90;76.20;;;;;;5014320;28;20888;-70
2023/12/29 11:14:03;;;;;;;2.80;1.77;;;11.90;75.80;;;;;;5027931;28;20425;-69
2023/12/29 11:16:31;;;;;;;2.73;1.80;;;11.90;76.20;;;;;;5025186;28;20428;-70
2023/12/29 11:18:58;;;;;;;3.40;1.83;;;11.90;75.80;;;;;;5024879;28;20425;-71
2023/12/29 11:21:26;;;;;;;1.30;1.20;;;12.00;75.40;;;;;;5020174;28;20578;-71
2023/12/29 11:23:52;;;;;;;2.17;1.70;;;12.00;75.40;;;;;;5026698;28;20455;-71
2023/12/29 11:26:20;;;;;;;2.40;1.67;;;12.00;75.10;;;;;;5030535;28;20416;-70
2023/12/29 11:28:48;;;;;;;3.20;1.83;;;12.00;75.10;;;;;;5027012;28;20177;-71
2023/12/29 11:31:19;;;;;;;2.70;1.83;;;12.00;74.80;;;;;;5022355;28;20456;-70
2023/12/29 11:33:54;;;;;;;2.37;1.67;;;12.10;74.80;;;;;;5023981;28;20432;-70
2023/12/29 11:36:25;;;;;;;3.40;1.87;;;12.10;74.60;;;;;;5026683;28;20799;-71
2023/12/29 11:39:14;;;;;;;2.97;1.90;;;12.10;74.60;;;;;;5031455;28;20500;-71
2023/12/29 11:41:50;;;;;;;2.37;1.80;;;12.20;74.80;;;;;;5035051;28;20460;-71
2023/12/29 11:44:29;;;;;;;2.50;1.90;;;12.10;74.30;;;;;;5028896;28;20427;-70
2023/12/29 11:46:57;;;;;;;2.40;1.70;;;12.20;74.00;;;;;;5032743;28;20435;-70
2023/12/29 11:49:22;;;;;;;2.63;1.73;;;12.20;72.60;;;;;;5026857;28;20424;-70
2023/12/29 11:51:49;;;;;;;2.87;1.70;;;12.20;72.60;;;;;;5027550;28;20563;-71
2023/12/29 11:54:26;;;;;;;4.10;1.90;;;12.20;72.30;;;;;;5025886;28;20215;-71
2023/12/29 11:56:56;;;;;;;3.30;1.80;;;12.30;72.10;;;;;;5032037;28;20474;-70
2023/12/29 11:59:24;;;;;;;3.10;1.40;;;12.30;72.30;;;;;;5029690;28;20802;-71
2023/12/29 12:01:58;;;;;;;2.90;1.77;;;12.40;71.70;;;;;;5025097;28;20431;-71
2023/12/29 12:04:40;;;;;;;3.07;1.90;;;12.50;71.80;;;;;;5027205;28;20543;-71
2023/12/29 12:07:27;;;;;;;2.47;1.60;;;12.60;71.60;;;;;;5029344;28;20520;-72
2023/12/29 12:10:12;;;;;;;3.27;1.83;;;12.60;70.70;;;;;;5025854;28;20492;-71
2023/12/29 12:12:42;;;;;;;3.10;1.83;;;12.60;71.00;;;;;;5018308;28;20953;-70
2023/12/29 12:15:26;;;;;;;2.10;1.60;;;12.60;70.40;;;;;;5025847;28;20425;-71
2023/12/29 12:17:52;;;;;;;2.67;1.60;;;12.60;69.70;;;;;;5023717;28;20471;-72
2023/12/29 12:20:18;;;;;;;3.73;1.97;;;12.50;69.70;;;;;;5027177;28;20880;-71
2023/12/29 12:22:49;;;;;;;1.73;1.60;;;12.50;69.80;;;;;;5025902;28;20432;-71
2023/12/29 12:25:15;;;;;;;2.33;1.70;;;12.50;69.50;;;;;;5033578;28;20460;-71
2023/12/29 12:27:41;;;;;;;3.03;1.90;;;12.50;69.10;;;;;;5033445;28;20463;-70
2023/12/29 12:30:09;;;;;;;3.20;1.83;;;12.50;68.30;;;;;;5031536;28;20209;-69
2023/12/29 12:32:35;;;;;;;2.67;1.83;;;12.60;68.60;;;;;;5033025;28;20459;-72
2023/12/29 12:35:01;;;;;;;5.90;1.37;;;12.60;68.80;;;;;;5032955;28;20831;-70
2023/12/29 12:37:28;;;;;;;2.80;1.70;;;12.60;68.80;;;;;;5034807;28;21386;-72
2023/12/29 12:39:55;;;;;;;3.77;2.47;;;12.60;68.90;;;;;;5027897;28;20232;-72
2023/12/29 12:42:22;;;;;;;3.00;1.60;;;12.70;68.50;;;;;;5032475;28;20435;-71
2023/12/29 12:45:11;;;;;;;2.93;1.73;;;12.70;67.90;;;;;;5026770;28;20474;-71
2023/12/29 12:47:47;;;;;;;3.00;1.53;;;12.80;67.70;;;;;;5025219;28;20455;-70
2023/12/29 12:50:13;;;;;;;2.60;1.93;;;12.80;67.70;;;;;;5021612;28;20455;-72